sensor_id;sensor_type;location;lat;lon;timestamp;pressure;altitude;pressure_sealevel;temperature;humidity
50292;BME280;36190;54.980;73.388;2024-01-16T00:00:40;102156.38;;;-21.47;70.53
50292;BME280;36190;54.980;73.388;2024-01-16T00:03:07;102153.22;;;-21.43;70.56
50292;BME280;36190;54.980;73.388;2024-01-16T00:05:36;102156.13;;;-21.35;70.77
50292;BME280;36190;54.980;73.388;2024-01-16T00:08:04;102153.13;;;-21.28;70.69
50292;BME280;36190;54.980;73.388;2024-01-16T00:10:32;102152.53;;;-21.22;70.65
50292;BME280;36190;54.980;73.388;2024-01-16T00:13:00;102157.47;;;-21.25;70.52
50292;BME280;36190;54.980;73.388;2024-01-16T00:15:27;102158.09;;;-21.30;70.43
50292;BME280;36190;54.980;73.388;2024-01-16T00:17:55;102158.75;;;-21.34;70.32
50292;BME280;36190;54.980;73.388;2024-01-16T00:20:23;102166.38;;;-21.34;70.56
50292;BME280;36190;54.980;73.388;2024-01-16T00:22:53;102162.22;;;-21.32;70.47
50292;BME280;36190;54.980;73.388;2024-01-16T00:25:20;102169.22;;;-21.27;70.49
50292;BME280;36190;54.980;73.388;2024-01-16T00:27:48;102167.63;;;-21.25;70.58
50292;BME280;36190;54.980;73.388;2024-01-16T00:30:16;102164.19;;;-21.26;70.46
50292;BME280;36190;54.980;73.388;2024-01-16T00:32:44;102172.84;;;-21.22;70.46
50292;BME280;36190;54.980;73.388;2024-01-16T00:35:12;102181.56;;;-21.17;70.47
50292;BME280;36190;54.980;73.388;2024-01-16T00:37:39;102185.91;;;-21.14;70.50
50292;BME280;36190;54.980;73.388;2024-01-16T00:40:09;102193.56;;;-21.13;70.44
50292;BME280;36190;54.980;73.388;2024-01-16T00:42:37;102197.94;;;-21.10;70.41
50292;BME280;36190;54.980;73.388;2024-01-16T00:45:05;102201.34;;;-21.10;70.36
50292;BME280;36190;54.980;73.388;2024-01-16T00:47:33;102200.41;;;-21.12;70.21
50292;BME280;36190;54.980;73.388;2024-01-16T00:50:00;102196.06;;;-21.14;70.15
50292;BME280;36190;54.980;73.388;2024-01-16T00:52:28;102185.03;;;-21.15;70.19
50292;BME280;36190;54.980;73.388;2024-01-16T00:54:56;102184.09;;;-21.17;70.19
50292;BME280;36190;54.980;73.388;2024-01-16T00:57:25;102184.09;;;-21.17;70.12
50292;BME280;36190;54.980;73.388;2024-01-16T00:59:53;102192.41;;;-21.20;70.13
50292;BME280;36190;54.980;73.388;2024-01-16T01:02:20;102198.19;;;-21.22;70.25
50292;BME280;36190;54.980;73.388;2024-01-16T01:04:48;102205.81;;;-21.22;70.16
50292;BME280;36190;54.980;73.388;2024-01-16T01:07:16;102206.78;;;-21.20;70.23
50292;BME280;36190;54.980;73.388;2024-01-16T01:09:43;102200.09;;;-21.18;70.33
50292;BME280;36190;54.980;73.388;2024-01-16T01:12:11;102197.66;;;-21.17;70.23
50292;BME280;36190;54.980;73.388;2024-01-16T01:14:40;102203.56;;;-21.16;70.17
50292;BME280;36190;54.980;73.388;2024-01-16T01:17:08;102199.94;;;-21.21;70.06
50292;BME280;36190;54.980;73.388;2024-01-16T01:19:35;102197.97;;;-21.27;70.10
50292;BME280;36190;54.980;73.388;2024-01-16T01:22:03;102204.72;;;-21.27;70.02
50292;BME280;36190;54.980;73.388;2024-01-16T01:24:31;102180.94;;;-21.46;70.07
50292;BME280;36190;54.980;73.388;2024-01-16T01:26:59;102199.00;;;-21.40;70.08
50292;BME280;36190;54.980;73.388;2024-01-16T01:29:26;102207.25;;;-21.44;70.11
50292;BME280;36190;54.980;73.388;2024-01-16T01:31:55;102203.75;;;-21.46;70.07
50292;BME280;36190;54.980;73.388;2024-01-16T01:34:23;102207.25;;;-21.44;70.34
50292;BME280;36190;54.980;73.388;2024-01-16T01:36:51;102208.81;;;-21.46;70.32
50292;BME280;36190;54.980;73.388;2024-01-16T01:39:18;102186.19;;;-21.60;70.19
50292;BME280;36190;54.980;73.388;2024-01-16T01:41:46;102199.56;;;-21.46;70.32
50292;BME280;36190;54.980;73.388;2024-01-16T01:44:14;102199.47;;;-21.47;70.35
50292;BME280;36190;54.980;73.388;2024-01-16T01:46:42;102202.91;;;-21.47;70.33
50292;BME280;36190;54.980;73.388;2024-01-16T01:49:14;102209.56;;;-21.49;70.31
50292;BME280;36190;54.980;73.388;2024-01-16T01:51:43;102214.63;;;-21.49;70.46
50292;BME280;36190;54.980;73.388;2024-01-16T01:54:11;102206.78;;;-21.53;70.41
50292;BME280;36190;54.980;73.388;2024-01-16T01:56:42;102224.59;;;-21.52;70.44
50292;BME280;36190;54.980;73.388;2024-01-16T01:59:11;102222.00;;;-21.53;70.45
50292;BME280;36190;54.980;73.388;2024-01-16T02:01:41;102223.66;;;-21.54;70.63
50292;BME280;36190;54.980;73.388;2024-01-16T02:04:10;102232.13;;;-21.53;70.54
50292;BME280;36190;54.980;73.388;2024-01-16T02:06:41;102235.44;;;-21.54;70.53
50292;BME280;36190;54.980;73.388;2024-01-16T02:09:10;102241.94;;;-21.60;70.50
50292;BME280;36190;54.980;73.388;2024-01-16T02:11:39;102241.94;;;-21.60;70.63
50292;BME280;36190;54.980;73.388;2024-01-16T02:14:07;102239.75;;;-21.53;70.75
50292;BME280;36190;54.980;73.388;2024-01-16T02:16:36;102241.00;;;-21.45;70.88
50292;BME280;36190;54.980;73.388;2024-01-16T02:19:05;102249.88;;;-21.37;70.80
50292;BME280;36190;54.980;73.388;2024-01-16T02:21:39;102220.88;;;-21.42;70.85
50292;BME280;36190;54.980;73.388;2024-01-16T02:24:10;102245.53;;;-21.23;70.82
50292;BME280;36190;54.980;73.388;2024-01-16T02:26:39;102243.94;;;-21.21;70.69
50292;BME280;36190;54.980;73.388;2024-01-16T02:29:06;102240.34;;;-21.24;70.56
50292;BME280;36190;54.980;73.388;2024-01-16T02:31:34;102237.44;;;-21.32;70.29
50292;BME280;36190;54.980;73.388;2024-01-16T02:34:02;102260.19;;;-21.34;70.42
50292;BME280;36190;54.980;73.388;2024-01-16T02:36:31;102256.69;;;-21.36;70.31
50292;BME280;36190;54.980;73.388;2024-01-16T02:38:59;102258.50;;;-21.33;70.39
50292;BME280;36190;54.980;73.388;2024-01-16T02:41:28;102249.94;;;-21.35;70.60
50292;BME280;36190;54.980;73.388;2024-01-16T02:43:56;102253.50;;;-21.32;70.33
50292;BME280;36190;54.980;73.388;2024-01-16T02:46:23;102260.50;;;-21.27;70.35
50292;BME280;36190;54.980;73.388;2024-01-16T02:48:51;102257.00;;;-21.30;70.37
50292;BME280;36190;54.980;73.388;2024-01-16T02:51:19;102250.19;;;-21.31;70.31
50292;BME280;36190;54.980;73.388;2024-01-16T02:53:46;102250.75;;;-21.36;70.18
50292;BME280;36190;54.980;73.388;2024-01-16T02:56:14;102244.63;;;-21.40;70.25
50292;BME280;36190;54.980;73.388;2024-01-16T02:58:44;102238.47;;;-21.45;70.14
50292;BME280;36190;54.980;73.388;2024-01-16T03:01:12;102252.88;;;-21.44;70.09
50292;BME280;36190;54.980;73.388;2024-01-16T03:03:41;102263.09;;;-21.42;70.10
50292;BME280;36190;54.980;73.388;2024-01-16T03:06:09;102268.09;;;-21.44;70.20
50292;BME280;36190;54.980;73.388;2024-01-16T03:08:36;102279.03;;;-21.45;70.12
50292;BME280;36190;54.980;73.388;2024-01-16T03:11:04;102276.56;;;-21.44;70.07
50292;BME280;36190;54.980;73.388;2024-01-16T03:13:32;102282.66;;;-21.40;70.18
50292;BME280;36190;54.980;73.388;2024-01-16T03:16:01;102275.94;;;-21.39;70.07
50292;BME280;36190;54.980;73.388;2024-01-16T03:18:33;102276.88;;;-21.37;70.09
50292;BME280;36190;54.980;73.388;2024-01-16T03:21:01;102285.53;;;-21.34;70.08
50292;BME280;36190;54.980;73.388;2024-01-16T03:23:29;102288.84;;;-21.35;70.07
50292;BME280;36190;54.980;73.388;2024-01-16T03:25:57;102285.28;;;-21.38;69.98
50292;BME280;36190;54.980;73.388;2024-01-16T03:28:24;102295.69;;;-21.34;70.01
50292;BME280;36190;54.980;73.388;2024-01-16T03:30:52;102296.47;;;-21.35;70.02
50292;BME280;36190;54.980;73.388;2024-01-16T03:33:22;102288.38;;;-21.44;69.90
50292;BME280;36190;54.980;73.388;2024-01-16T03:35:51;102289.31;;;-21.42;69.85
50292;BME280;36190;54.980;73.388;2024-01-16T03:38:19;102288.53;;;-21.41;69.75
50292;BME280;36190;54.980;73.388;2024-01-16T03:40:46;102290.28;;;-21.40;69.92
50292;BME280;36190;54.980;73.388;2024-01-16T03:43:14;102299.72;;;-21.37;69.90
50292;BME280;36190;54.980;73.388;2024-01-16T03:45:42;102299.84;;;-21.34;69.93
50292;BME280;36190;54.980;73.388;2024-01-16T03:48:09;102300.28;;;-21.26;69.93
50292;BME280;36190;54.980;73.388;2024-01-16T03:50:39;102294.88;;;-21.16;70.02
50292;BME280;36190;54.980;73.388;2024-01-16T03:53:09;102305.59;;;-21.05;70.02
50292;BME280;36190;54.980;73.388;2024-01-16T03:55:37;102301.06;;;-20.94;69.88
50292;BME280;36190;54.980;73.388;2024-01-16T03:58:05;102301.63;;;-20.82;69.98
50292;BME280;36190;54.980;73.388;2024-01-16T04:00:33;102303.78;;;-20.73;69.75
50292;BME280;36190;54.980;73.388;2024-01-16T04:03:01;102308.28;;;-20.67;69.48
50292;BME280;36190;54.980;73.388;2024-01-16T04:05:29;102306.91;;;-20.61;69.47
50292;BME280;36190;54.980;73.388;2024-01-16T04:07:58;102298.91;;;-20.52;69.38
50292;BME280;36190;54.980;73.388;2024-01-16T04:10:26;102296.59;;;-20.47;69.28
50292;BME280;36190;54.980;73.388;2024-01-16T04:12:54;102297.38;;;-20.48;69.04
50292;BME280;36190;54.980;73.388;2024-01-16T04:15:22;102303.16;;;-20.51;68.84
50292;BME280;36190;54.980;73.388;2024-01-16T04:17:49;102302.31;;;-20.51;68.84
50292;BME280;36190;54.980;73.388;2024-01-16T04:20:17;102293.00;;;-20.51;68.75
50292;BME280;36190;54.980;73.388;2024-01-16T04:22:45;102318.84;;;-20.41;68.66
50292;BME280;36190;54.980;73.388;2024-01-16T04:25:14;102303.34;;;-20.29;68.75
50292;BME280;36190;54.980;73.388;2024-01-16T04:27:42;102308.16;;;-20.17;68.71
50292;BME280;36190;54.980;73.388;2024-01-16T04:30:11;102315.28;;;-20.10;68.62
50292;BME280;36190;54.980;73.388;2024-01-16T04:32:39;102319.03;;;-20.02;68.49
50292;BME280;36190;54.980;73.388;2024-01-16T04:35:07;102326.28;;;-19.92;68.35
50292;BME280;36190;54.980;73.388;2024-01-16T04:37:35;102314.78;;;-19.83;68.36
50292;BME280;36190;54.980;73.388;2024-01-16T04:40:03;102315.09;;;-19.77;68.14
50292;BME280;36190;54.980;73.388;2024-01-16T04:42:32;102322.94;;;-19.72;67.90
50292;BME280;36190;54.980;73.388;2024-01-16T04:45:00;102326.28;;;-19.73;67.74
50292;BME280;36190;54.980;73.388;2024-01-16T04:47:28;102325.97;;;-19.80;67.55
50292;BME280;36190;54.980;73.388;2024-01-16T04:49:57;102331.66;;;-19.85;67.57
50292;BME280;36190;54.980;73.388;2024-01-16T04:52:24;102334.09;;;-19.87;67.51
50292;BME280;36190;54.980;73.388;2024-01-16T04:54:52;102347.41;;;-19.93;67.32
50292;BME280;36190;54.980;73.388;2024-01-16T04:57:20;102344.69;;;-19.97;67.27
50292;BME280;36190;54.980;73.388;2024-01-16T04:59:49;102341.41;;;-19.95;67.60
50292;BME280;36190;54.980;73.388;2024-01-16T05:02:16;102340.72;;;-19.91;67.68
50292;BME280;36190;54.980;73.388;2024-01-16T05:04:44;102347.78;;;-19.85;67.62
50292;BME280;36190;54.980;73.388;2024-01-16T05:07:15;102340.28;;;-19.82;67.56
50292;BME280;36190;54.980;73.388;2024-01-16T05:09:44;102337.03;;;-19.79;67.51
50292;BME280;36190;54.980;73.388;2024-01-16T05:12:12;102351.78;;;-19.72;67.40
50292;BME280;36190;54.980;73.388;2024-01-16T05:14:40;102345.72;;;-19.74;67.34
50292;BME280;36190;54.980;73.388;2024-01-16T05:17:09;102355.88;;;-19.74;67.15
50292;BME280;36190;54.980;73.388;2024-01-16T05:19:37;102354.91;;;-19.78;67.02
50292;BME280;36190;54.980;73.388;2024-01-16T05:22:05;102357.66;;;-19.73;67.14
50292;BME280;36190;54.980;73.388;2024-01-16T05:24:33;102354.03;;;-19.60;67.30
50292;BME280;36190;54.980;73.388;2024-01-16T05:27:01;102357.31;;;-19.43;67.27
50292;BME280;36190;54.980;73.388;2024-01-16T05:29:30;102356.28;;;-19.28;67.24
50292;BME280;36190;54.980;73.388;2024-01-16T05:31:58;102354.34;;;-19.14;67.15
50292;BME280;36190;54.980;73.388;2024-01-16T05:34:27;102367.75;;;-18.99;67.04
50292;BME280;36190;54.980;73.388;2024-01-16T05:36:55;102365.53;;;-18.91;66.71
50292;BME280;36190;54.980;73.388;2024-01-16T05:39:23;102361.66;;;-18.83;66.54
50292;BME280;36190;54.980;73.388;2024-01-16T05:41:51;102360.16;;;-18.77;66.33
50292;BME280;36190;54.980;73.388;2024-01-16T05:44:19;102361.78;;;-18.80;65.93
50292;BME280;36190;54.980;73.388;2024-01-16T05:46:46;102361.50;;;-18.86;66.05
50292;BME280;36190;54.980;73.388;2024-01-16T05:49:14;102367.56;;;-18.84;65.94
50292;BME280;36190;54.980;73.388;2024-01-16T05:51:43;102364.41;;;-18.78;65.96
50292;BME280;36190;54.980;73.388;2024-01-16T05:54:12;102368.97;;;-18.71;65.86
50292;BME280;36190;54.980;73.388;2024-01-16T05:56:38;102365.06;;;-18.62;65.78
50292;BME280;36190;54.980;73.388;2024-01-16T05:59:06;102374.38;;;-18.63;65.84
50292;BME280;36190;54.980;73.388;2024-01-16T06:01:34;102362.47;;;-18.84;65.58
50292;BME280;36190;54.980;73.388;2024-01-16T06:04:02;102361.75;;;-19.01;65.56
50292;BME280;36190;54.980;73.388;2024-01-16T06:06:30;102358.72;;;-19.12;65.86
50292;BME280;36190;54.980;73.388;2024-01-16T06:09:00;102380.69;;;-19.14;65.91
50292;BME280;36190;54.980;73.388;2024-01-16T06:11:31;102375.94;;;-19.06;66.09
50292;BME280;36190;54.980;73.388;2024-01-16T06:13:58;102376.53;;;-18.92;66.22
50292;BME280;36190;54.980;73.388;2024-01-16T06:16:26;102381.34;;;-18.78;66.12
50292;BME280;36190;54.980;73.388;2024-01-16T06:18:55;102382.38;;;-18.55;66.00
50292;BME280;36190;54.980;73.388;2024-01-16T06:21:23;102379.03;;;-18.33;66.14
50292;BME280;36190;54.980;73.388;2024-01-16T06:23:50;102382.97;;;-18.20;65.62
50292;BME280;36190;54.980;73.388;2024-01-16T06:26:20;102386.16;;;-18.03;65.38
50292;BME280;36190;54.980;73.388;2024-01-16T06:28:47;102379.84;;;-17.91;65.20
50292;BME280;36190;54.980;73.388;2024-01-16T06:31:16;102378.66;;;-17.78;65.08
50292;BME280;36190;54.980;73.388;2024-01-16T06:33:44;102381.63;;;-17.67;64.73
50292;BME280;36190;54.980;73.388;2024-01-16T06:36:12;102383.81;;;-17.54;64.70
50292;BME280;36190;54.980;73.388;2024-01-16T06:38:39;102382.44;;;-17.46;64.51
50292;BME280;36190;54.980;73.388;2024-01-16T06:41:07;102386.28;;;-17.34;64.34
50292;BME280;36190;54.980;73.388;2024-01-16T06:43:37;102390.75;;;-17.29;64.06
50292;BME280;36190;54.980;73.388;2024-01-16T06:46:05;102389.94;;;-17.28;63.85
50292;BME280;36190;54.980;73.388;2024-01-16T06:48:34;102389.13;;;-17.26;63.84
50292;BME280;36190;54.980;73.388;2024-01-16T06:51:03;102387.31;;;-17.29;63.81
50292;BME280;36190;54.980;73.388;2024-01-16T06:53:30;102384.78;;;-17.29;63.66
50292;BME280;36190;54.980;73.388;2024-01-16T06:55:58;102385.75;;;-17.25;63.69
50292;BME280;36190;54.980;73.388;2024-01-16T06:58:26;102380.72;;;-17.24;63.66
50292;BME280;36190;54.980;73.388;2024-01-16T07:00:55;102389.53;;;-17.16;63.70
50292;BME280;36190;54.980;73.388;2024-01-16T07:03:23;102367.63;;;-17.33;63.62
50292;BME280;36190;54.980;73.388;2024-01-16T07:05:50;102384.78;;;-17.29;63.61
50292;BME280;36190;54.980;73.388;2024-01-16T07:08:18;102379.09;;;-17.45;63.59
50292;BME280;36190;54.980;73.388;2024-01-16T07:10:46;102382.34;;;-17.49;63.69
50292;BME280;36190;54.980;73.388;2024-01-16T07:13:31;102388.50;;;-17.44;64.00
50292;BME280;36190;54.980;73.388;2024-01-16T07:16:02;102392.59;;;-17.47;63.95
50292;BME280;36190;54.980;73.388;2024-01-16T07:18:31;102397.00;;;-17.43;63.95
50292;BME280;36190;54.980;73.388;2024-01-16T07:20:59;102398.13;;;-17.36;63.98
50292;BME280;36190;54.980;73.388;2024-01-16T07:23:28;102401.22;;;-17.22;63.98
50292;BME280;36190;54.980;73.388;2024-01-16T07:25:56;102398.81;;;-17.18;63.80
50292;BME280;36190;54.980;73.388;2024-01-16T07:28:24;102404.50;;;-17.02;63.91
50292;BME280;36190;54.980;73.388;2024-01-16T07:30:53;102401.22;;;-16.98;63.71
50292;BME280;36190;54.980;73.388;2024-01-16T07:33:23;102404.22;;;-16.86;63.52
50292;BME280;36190;54.980;73.388;2024-01-16T07:35:50;102395.38;;;-16.71;63.41
50292;BME280;36190;54.980;73.388;2024-01-16T07:38:18;102396.78;;;-16.55;63.33
50292;BME280;36190;54.980;73.388;2024-01-16T07:40:46;102401.28;;;-16.48;63.16
50292;BME280;36190;54.980;73.388;2024-01-16T07:43:14;102402.69;;;-16.32;62.95
50292;BME280;36190;54.980;73.388;2024-01-16T07:45:41;102395.53;;;-16.16;62.73
50292;BME280;36190;54.980;73.388;2024-01-16T07:48:08;102402.72;;;-16.06;62.70
50292;BME280;36190;54.980;73.388;2024-01-16T07:50:38;102396.34;;;-16.17;62.19
50292;BME280;36190;54.980;73.388;2024-01-16T07:53:06;102378.81;;;-16.32;62.21
50292;BME280;36190;54.980;73.388;2024-01-16T07:55:33;102395.44;;;-16.19;62.63
50292;BME280;36190;54.980;73.388;2024-01-16T07:58:01;102381.47;;;-16.03;62.57
50292;BME280;36190;54.980;73.388;2024-01-16T08:00:30;102392.38;;;-16.09;62.42
50292;BME280;36190;54.980;73.388;2024-01-16T08:02:58;102386.88;;;-16.21;62.23
50292;BME280;36190;54.980;73.388;2024-01-16T08:05:26;102393.72;;;-16.20;62.22
50292;BME280;36190;54.980;73.388;2024-01-16T08:07:57;102388.69;;;-16.17;62.25
50292;BME280;36190;54.980;73.388;2024-01-16T08:10:25;102392.59;;;-16.02;62.35
50292;BME280;36190;54.980;73.388;2024-01-16T08:12:53;102396.44;;;-15.88;62.33
50292;BME280;36190;54.980;73.388;2024-01-16T08:15:20;102397.72;;;-15.73;62.04
50292;BME280;36190;54.980;73.388;2024-01-16T08:17:48;102398.06;;;-15.63;61.90
50292;BME280;36190;54.980;73.388;2024-01-16T08:20:17;102400.78;;;-15.58;61.59
50292;BME280;36190;54.980;73.388;2024-01-16T08:22:45;102401.75;;;-15.54;61.58
50292;BME280;36190;54.980;73.388;2024-01-16T08:25:14;102407.13;;;-15.46;61.58
50292;BME280;36190;54.980;73.388;2024-01-16T08:27:42;102406.28;;;-15.45;61.30
50292;BME280;36190;54.980;73.388;2024-01-16T08:30:10;102408.03;;;-15.44;61.18
50292;BME280;36190;54.980;73.388;2024-01-16T08:32:38;102405.53;;;-15.43;61.21
50292;BME280;36190;54.980;73.388;2024-01-16T08:35:07;102409.00;;;-15.41;61.13
50292;BME280;36190;54.980;73.388;2024-01-16T08:37:34;102408.66;;;-15.52;60.89
50292;BME280;36190;54.980;73.388;2024-01-16T08:40:02;102411.22;;;-15.52;60.86
50292;BME280;36190;54.980;73.388;2024-01-16T08:42:32;102407.69;;;-15.55;60.81
50292;BME280;36190;54.980;73.388;2024-01-16T08:45:00;102410.97;;;-15.59;60.80
50292;BME280;36190;54.980;73.388;2024-01-16T08:47:27;102415.91;;;-15.66;60.83
50292;BME280;36190;54.980;73.388;2024-01-16T08:49:56;102413.25;;;-15.69;60.77
50292;BME280;36190;54.980;73.388;2024-01-16T08:52:23;102417.69;;;-15.63;60.86
50292;BME280;36190;54.980;73.388;2024-01-16T08:54:51;102411.84;;;-15.59;60.90
50292;BME280;36190;54.980;73.388;2024-01-16T08:57:19;102413.47;;;-15.61;60.93
50292;BME280;36190;54.980;73.388;2024-01-16T08:59:48;102422.81;;;-15.63;60.62
50292;BME280;36190;54.980;73.388;2024-01-16T09:02:16;102409.91;;;-15.66;60.74
50292;BME280;36190;54.980;73.388;2024-01-16T09:04:44;102428.50;;;-15.72;60.63
50292;BME280;36190;54.980;73.388;2024-01-16T09:07:11;102422.53;;;-15.72;60.77
50292;BME280;36190;54.980;73.388;2024-01-16T09:09:41;102423.16;;;-15.78;60.74
50292;BME280;36190;54.980;73.388;2024-01-16T09:12:10;102424.66;;;-15.85;60.95
50292;BME280;36190;54.980;73.388;2024-01-16T09:14:38;102431.38;;;-15.89;60.98
50292;BME280;36190;54.980;73.388;2024-01-16T09:17:09;102427.97;;;-15.89;60.82
50292;BME280;36190;54.980;73.388;2024-01-16T09:19:37;102443.59;;;-15.80;60.86
50292;BME280;36190;54.980;73.388;2024-01-16T09:22:04;102449.84;;;-15.71;60.88
50292;BME280;36190;54.980;73.388;2024-01-16T09:24:32;102457.59;;;-15.68;60.82
50292;BME280;36190;54.980;73.388;2024-01-16T09:27:00;102444.81;;;-15.68;60.78
50292;BME280;36190;54.980;73.388;2024-01-16T09:29:32;102449.13;;;-15.67;60.73
50292;BME280;36190;54.980;73.388;2024-01-16T09:32:00;102448.19;;;-15.69;60.61
50292;BME280;36190;54.980;73.388;2024-01-16T09:34:29;102448.13;;;-15.72;60.48
50292;BME280;36190;54.980;73.388;2024-01-16T09:36:57;102453.09;;;-15.76;60.48
50292;BME280;36190;54.980;73.388;2024-01-16T09:39:28;102450.34;;;-15.82;60.36
50292;BME280;36190;54.980;73.388;2024-01-16T09:41:59;102445.69;;;-15.95;60.46
50292;BME280;36190;54.980;73.388;2024-01-16T09:44:28;102445.22;;;-16.09;60.43
50292;BME280;36190;54.980;73.388;2024-01-16T09:46:57;102448.53;;;-16.12;60.65
50292;BME280;36190;54.980;73.388;2024-01-16T09:49:25;102455.41;;;-16.11;60.94
50292;BME280;36190;54.980;73.388;2024-01-16T09:51:54;102441.47;;;-16.19;60.88
50292;BME280;36190;54.980;73.388;2024-01-16T09:54:25;102453.44;;;-16.18;60.76
50292;BME280;36190;54.980;73.388;2024-01-16T09:56:54;102445.59;;;-16.23;60.75
50292;BME280;36190;54.980;73.388;2024-01-16T09:59:24;102457.66;;;-16.19;60.86
50292;BME280;36190;54.980;73.388;2024-01-16T10:01:52;102460.06;;;-16.23;60.78
50292;BME280;36190;54.980;73.388;2024-01-16T10:04:21;102452.38;;;-16.25;60.78
50292;BME280;36190;54.980;73.388;2024-01-16T10:06:50;102453.22;;;-16.24;60.90
50292;BME280;36190;54.980;73.388;2024-01-16T10:09:20;102454.94;;;-16.23;60.90
50292;BME280;36190;54.980;73.388;2024-01-16T10:11:48;102447.34;;;-16.22;60.83
50292;BME280;36190;54.980;73.388;2024-01-16T10:14:18;102451.78;;;-16.16;60.92
50292;BME280;36190;54.980;73.388;2024-01-16T10:16:58;102461.09;;;-16.18;60.55
50292;BME280;36190;54.980;73.388;2024-01-16T10:19:29;102461.59;;;-16.28;60.62
50292;BME280;36190;54.980;73.388;2024-01-16T10:22:03;102452.84;;;-16.35;60.73
50292;BME280;36190;54.980;73.388;2024-01-16T10:24:33;102456.97;;;-16.39;60.72
50292;BME280;36190;54.980;73.388;2024-01-16T10:27:03;102462.69;;;-16.46;60.75
50292;BME280;36190;54.980;73.388;2024-01-16T10:29:32;102471.66;;;-16.58;60.76
50292;BME280;36190;54.980;73.388;2024-01-16T10:32:00;102467.72;;;-16.72;60.84
50292;BME280;36190;54.980;73.388;2024-01-16T10:34:28;102479.38;;;-16.79;60.85
50292;BME280;36190;54.980;73.388;2024-01-16T10:36:59;102479.13;;;-16.87;61.03
50292;BME280;36190;54.980;73.388;2024-01-16T10:39:27;102484.63;;;-16.98;61.16
50292;BME280;36190;54.980;73.388;2024-01-16T10:41:56;102479.13;;;-17.09;61.25
50292;BME280;36190;54.980;73.388;2024-01-16T10:44:25;102482.25;;;-17.17;61.54
50292;BME280;36190;54.980;73.388;2024-01-16T10:47:09;102472.53;;;-17.25;61.42
50292;BME280;36190;54.980;73.388;2024-01-16T10:49:38;102481.75;;;-17.29;61.76
50292;BME280;36190;54.980;73.388;2024-01-16T10:52:10;102462.19;;;-17.51;61.74
50292;BME280;36190;54.980;73.388;2024-01-16T10:54:41;102489.75;;;-17.43;61.66
50292;BME280;36190;54.980;73.388;2024-01-16T10:57:13;102474.25;;;-17.47;61.99
50292;BME280;36190;54.980;73.388;2024-01-16T10:59:50;102472.44;;;-17.50;61.97
50292;BME280;36190;54.980;73.388;2024-01-16T11:02:24;102484.84;;;-17.59;62.03
50292;BME280;36190;54.980;73.388;2024-01-16T11:04:56;102488.63;;;-17.71;62.01
50292;BME280;36190;54.980;73.388;2024-01-16T11:07:24;102491.66;;;-17.79;62.23
50292;BME280;36190;54.980;73.388;2024-01-16T11:09:54;102485.41;;;-17.86;62.25
50292;BME280;36190;54.980;73.388;2024-01-16T11:12:24;102491.22;;;-17.90;62.48
50292;BME280;36190;54.980;73.388;2024-01-16T11:14:52;102495.69;;;-18.06;62.54
50292;BME280;36190;54.980;73.388;2024-01-16T11:17:22;102496.91;;;-18.17;62.52
50292;BME280;36190;54.980;73.388;2024-01-16T11:19:51;102496.78;;;-18.20;62.60
50292;BME280;36190;54.980;73.388;2024-01-16T11:22:19;102493.28;;;-18.22;62.68
50292;BME280;36190;54.980;73.388;2024-01-16T11:25:07;102479.34;;;-18.31;62.86
50292;BME280;36190;54.980;73.388;2024-01-16T11:27:37;102493.16;;;-18.26;62.82
50292;BME280;36190;54.980;73.388;2024-01-16T11:30:06;102482.81;;;-18.29;62.97
50292;BME280;36190;54.980;73.388;2024-01-16T11:32:35;102479.03;;;-18.39;63.08
50292;BME280;36190;54.980;73.388;2024-01-16T11:35:04;102486.72;;;-18.37;63.04
50292;BME280;36190;54.980;73.388;2024-01-16T11:37:33;102490.59;;;-18.45;62.95
50292;BME280;36190;54.980;73.388;2024-01-16T11:40:24;102496.22;;;-18.53;63.11
50292;BME280;36190;54.980;73.388;2024-01-16T11:42:54;102496.91;;;-18.57;63.25
50292;BME280;36190;54.980;73.388;2024-01-16T11:45:47;102497.97;;;-18.52;63.27
50292;BME280;36190;54.980;73.388;2024-01-16T11:48:16;102495.16;;;-18.58;63.37
50292;BME280;36190;54.980;73.388;2024-01-16T11:50:44;102492.47;;;-18.61;63.31
50292;BME280;36190;54.980;73.388;2024-01-16T11:53:31;102481.94;;;-18.69;63.31
50292;BME280;36190;54.980;73.388;2024-01-16T11:56:15;102491.97;;;-18.72;63.65
50292;BME280;36190;54.980;73.388;2024-01-16T11:59:01;102488.28;;;-18.78;63.21
50292;BME280;36190;54.980;73.388;2024-01-16T12:01:36;102497.41;;;-18.84;63.34
50292;BME280;36190;54.980;73.388;2024-01-16T12:04:04;102499.78;;;-18.87;63.38
50292;BME280;36190;54.980;73.388;2024-01-16T12:06:33;102492.63;;;-18.96;63.37
50292;BME280;36190;54.980;73.388;2024-01-16T12:09:11;102490.13;;;-18.94;63.37
50292;BME280;36190;54.980;73.388;2024-01-16T12:11:40;102485.53;;;-19.03;63.56
50292;BME280;36190;54.980;73.388;2024-01-16T12:14:12;102495.72;;;-19.03;63.66
50292;BME280;36190;54.980;73.388;2024-01-16T12:16:40;102503.13;;;-19.08;63.70
50292;BME280;36190;54.980;73.388;2024-01-16T12:19:08;102496.13;;;-19.12;63.69
50292;BME280;36190;54.980;73.388;2024-01-16T12:21:39;102507.19;;;-19.11;63.81
50292;BME280;36190;54.980;73.388;2024-01-16T12:24:07;102498.47;;;-19.16;63.83
50292;BME280;36190;54.980;73.388;2024-01-16T12:26:35;102488.44;;;-19.31;63.91
50292;BME280;36190;54.980;73.388;2024-01-16T12:29:03;102483.91;;;-19.37;63.96
50292;BME280;36190;54.980;73.388;2024-01-16T12:31:32;102491.63;;;-19.36;64.04
50292;BME280;36190;54.980;73.388;2024-01-16T12:34:07;102496.00;;;-19.33;64.13
50292;BME280;36190;54.980;73.388;2024-01-16T12:36:36;102497.72;;;-19.32;64.21
50292;BME280;36190;54.980;73.388;2024-01-16T12:39:04;102502.81;;;-19.32;64.32